createdAt,value
2022-08-17T00:02:25.865Z,98.20
2022-08-17T00:05:30.599Z,98.10
2022-08-17T00:08:41.426Z,98.50
2022-08-17T00:11:44.030Z,98.60
2022-08-17T00:15:10.415Z,98.50
2022-08-17T00:19:01.587Z,98.50
2022-08-17T00:22:29.444Z,98.30
2022-08-17T00:24:58.473Z,98.60
2022-08-17T00:28:00.524Z,98.50
2022-08-17T00:31:02.636Z,98.40
2022-08-17T00:34:05.067Z,98.60
2022-08-17T00:37:07.214Z,98.60
2022-08-17T00:40:11.125Z,98.70
2022-08-17T00:43:14.578Z,99.00
2022-08-17T00:46:24.277Z,99.10
2022-08-17T00:49:26.448Z,99.10
2022-08-17T00:52:33.956Z,99.00
2022-08-17T00:55:35.989Z,99.10
2022-08-17T00:58:38.557Z,99.00
2022-08-17T01:01:41.003Z,99.10
2022-08-17T01:04:44.674Z,99.10
2022-08-17T01:07:47.300Z,99.10
2022-08-17T01:10:58.882Z,98.80
2022-08-17T01:14:03.978Z,98.70
2022-08-17T01:17:06.285Z,98.70
2022-08-17T01:20:08.969Z,98.80
2022-08-17T01:23:11.122Z,98.80
2022-08-17T01:26:20.212Z,98.70
2022-08-17T01:29:24.496Z,98.70
2022-08-17T01:32:26.779Z,98.70
2022-08-17T01:35:28.670Z,98.80
2022-08-17T01:38:32.023Z,98.70
2022-08-17T01:41:35.769Z,98.60
2022-08-17T01:44:37.726Z,98.80
2022-08-17T01:47:41.888Z,98.70
2022-08-17T01:50:44.689Z,98.70
2022-08-17T01:53:50.800Z,98.60
2022-08-17T01:56:53.892Z,98.60
2022-08-17T01:59:55.855Z,98.60
2022-08-17T02:02:58.478Z,98.60
2022-08-17T02:06:00.792Z,98.70
2022-08-17T02:09:04.805Z,98.80
2022-08-17T02:12:37.939Z,98.60
2022-08-17T02:15:29.345Z,98.90
2022-08-17T02:18:32.383Z,98.90
2022-08-17T02:21:34.811Z,99.00
2022-08-17T02:25:00.688Z,98.80
2022-08-17T02:27:59.863Z,99.10
2022-08-17T02:31:08.564Z,99.20
2022-08-17T02:34:10.536Z,99.30
2022-08-17T02:37:12.742Z,99.60
2022-08-17T02:40:15.383Z,99.60
2022-08-17T02:43:19.188Z,99.80
2022-08-17T02:46:21.200Z,99.80
2022-08-17T02:49:23.190Z,99.90
2022-08-17T02:52:43.318Z,99.90
2022-08-17T02:55:46.168Z,99.90
2022-08-17T02:58:48.335Z,99.90
2022-08-17T03:01:50.634Z,99.80
2022-08-17T03:04:52.974Z,99.90
2022-08-17T03:07:55.028Z,99.80
2022-08-17T03:10:57.247Z,99.70
2022-08-17T03:13:59.382Z,99.70
2022-08-17T03:17:01.453Z,99.60
2022-08-17T03:20:06.119Z,99.80
2022-08-17T03:23:08.696Z,99.70
2022-08-17T03:26:12.350Z,99.70
2022-08-17T03:29:19.421Z,99.80
2022-08-17T03:32:21.441Z,99.70
2022-08-17T03:35:25.871Z,99.90
2022-08-17T03:38:27.941Z,99.90
2022-08-17T03:41:29.886Z,99.90
2022-08-17T03:44:31.932Z,99.90
2022-08-17T03:47:52.720Z,99.90
2022-08-17T03:51:14.926Z,99.90
2022-08-17T03:54:37.567Z,99.90
2022-08-17T03:57:40.198Z,99.80
2022-08-17T04:00:45.400Z,99.80
2022-08-17T04:03:47.322Z,99.80
2022-08-17T04:06:50.647Z,99.70
2022-08-17T04:09:53.548Z,99.70
2022-08-17T04:12:59.165Z,99.60
2022-08-17T04:16:06.007Z,99.60
2022-08-17T04:19:10.830Z,99.70
2022-08-17T04:22:30.647Z,99.70
2022-08-17T04:25:36.470Z,99.60
2022-08-17T04:28:38.683Z,99.50
2022-08-17T04:31:40.651Z,99.50
2022-08-17T04:34:43.646Z,99.50
2022-08-17T04:37:45.782Z,99.60
2022-08-17T04:41:06.920Z,99.50
2022-08-17T04:44:09.141Z,99.50
2022-08-17T04:47:12.059Z,99.60
2022-08-17T04:50:15.534Z,99.60
2022-08-17T04:53:18.371Z,99.60
2022-08-17T04:56:20.418Z,99.50
2022-08-17T04:59:22.544Z,99.50
2022-08-17T05:02:24.517Z,99.60
2022-08-17T05:05:28.883Z,99.70
2022-08-17T05:08:33.276Z,99.80
2022-08-17T05:11:37.034Z,99.70
2022-08-17T05:14:39.408Z,99.90
2022-08-17T05:17:41.389Z,99.70
2022-08-17T05:20:45.351Z,99.70
2022-08-17T05:23:54.713Z,99.90
2022-08-17T05:27:01.368Z,99.90
2022-08-17T05:30:07.268Z,99.90
2022-08-17T05:33:12.130Z,99.90
2022-08-17T05:36:42.632Z,99.90
2022-08-17T05:39:37.269Z,99.90
2022-08-17T05:42:39.336Z,99.90
2022-08-17T05:45:55.932Z,99.90
2022-08-17T05:49:01.676Z,99.90
2022-08-17T05:52:08.290Z,99.90
2022-08-17T05:55:17.249Z,99.90
2022-08-17T05:58:22.670Z,99.90
2022-08-17T06:01:50.864Z,99.90
2022-08-17T06:04:52.869Z,99.90
2022-08-17T06:08:06.731Z,99.90
2022-08-17T06:11:23.951Z,99.90
2022-08-17T06:14:42.515Z,99.90
2022-08-17T06:17:46.352Z,99.90
2022-08-17T06:20:51.132Z,99.90
2022-08-17T06:24:13.555Z,99.90
2022-08-17T06:27:18.672Z,99.90
2022-08-17T06:30:22.427Z,99.80
2022-08-17T06:33:31.700Z,98.80
2022-08-17T06:36:43.208Z,98.50
2022-08-17T06:40:04.610Z,97.90
2022-08-17T06:43:13.214Z,97.40
2022-08-17T06:46:21.428Z,96.70
2022-08-17T06:49:27.095Z,95.90
2022-08-17T06:52:45.221Z,95.60
2022-08-17T06:56:15.142Z,94.20
2022-08-17T06:59:19.660Z,93.70
2022-08-17T07:03:02.089Z,93.20
2022-08-17T07:06:01.114Z,92.10
2022-08-17T07:09:06.387Z,92.60
2022-08-17T07:12:11.112Z,91.60
2022-08-17T07:15:19.140Z,91.50
2022-08-17T07:18:23.698Z,91.60
2022-08-17T07:21:30.819Z,91.70
2022-08-17T07:24:48.874Z,92.10
2022-08-17T07:27:53.017Z,91.20
2022-08-17T07:30:54.961Z,90.70
2022-08-17T07:34:02.610Z,89.70
2022-08-17T07:37:05.428Z,87.60
2022-08-17T07:40:18.657Z,85.50
2022-08-17T07:43:23.322Z,85.80
2022-08-17T07:47:05.715Z,85.20
2022-08-17T07:50:26.334Z,84.30
2022-08-17T07:53:29.360Z,85.00
2022-08-17T07:56:37.935Z,83.40
2022-08-17T07:59:44.033Z,82.70
2022-08-17T08:02:58.689Z,82.50
2022-08-17T08:06:02.446Z,81.00
2022-08-17T08:09:04.465Z,79.00
2022-08-17T08:12:21.884Z,77.10
2022-08-17T08:15:33.390Z,74.90
2022-08-17T08:18:54.605Z,74.60
2022-08-17T08:21:59.198Z,71.50
2022-08-17T08:25:07.535Z,71.40
2022-08-17T08:28:20.009Z,70.20
2022-08-17T08:31:43.518Z,66.80
2022-08-17T08:35:09.092Z,66.00
2022-08-17T08:38:18.402Z,64.50
2022-08-17T08:41:30.620Z,64.70
2022-08-17T08:45:00.923Z,64.10
2022-08-17T08:48:46.043Z,64.20
2022-08-17T08:51:47.488Z,62.60
2022-08-17T08:55:00.088Z,62.80
2022-08-17T08:58:08.842Z,61.90
2022-08-17T09:01:44.209Z,62.50
2022-08-17T09:05:12.809Z,59.90
2022-08-17T09:08:15.367Z,57.50
2022-08-17T09:11:22.694Z,57.30
2022-08-17T09:14:29.447Z,56.20
2022-08-17T09:17:38.387Z,55.50
2022-08-17T09:20:49.583Z,55.20
2022-08-17T09:24:00.141Z,54.20
2022-08-17T09:27:04.565Z,52.70
2022-08-17T09:30:10.216Z,51.60
2022-08-17T09:33:14.700Z,52.90
2022-08-17T09:36:23.274Z,55.10
2022-08-17T09:39:45.558Z,55.40
2022-08-17T09:42:49.961Z,52.20
2022-08-17T09:45:54.383Z,52.50
2022-08-17T09:48:59.298Z,51.80
2022-08-17T09:52:03.856Z,53.60
2022-08-17T09:55:06.311Z,53.90
2022-08-17T09:58:09.727Z,52.80
2022-08-17T10:01:21.308Z,51.20
2022-08-17T10:04:29.321Z,48.70
2022-08-17T10:07:52.427Z,48.40
2022-08-17T10:10:59.178Z,47.40
2022-08-17T10:14:02.146Z,48.10
2022-08-17T10:17:35.766Z,49.80
2022-08-17T10:20:46.850Z,48.20
2022-08-17T10:24:11.366Z,48.50
2022-08-17T10:27:16.312Z,46.90
2022-08-17T10:30:20.211Z,47.30
2022-08-17T10:33:24.026Z,49.00
2022-08-17T10:36:38.089Z,48.90
2022-08-17T10:39:51.892Z,50.80
2022-08-17T10:42:56.891Z,50.30
2022-08-17T10:46:30.890Z,50.70
2022-08-17T10:49:45.823Z,49.20
2022-08-17T10:52:48.763Z,47.50
2022-08-17T10:56:09.261Z,44.60
2022-08-17T10:59:32.789Z,44.20
2022-08-17T11:02:46.222Z,45.50
2022-08-17T11:06:06.967Z,47.20
2022-08-17T11:09:26.837Z,46.40
2022-08-17T11:12:37.690Z,45.40
2022-08-17T11:15:42.349Z,47.00
2022-08-17T11:18:50.960Z,45.50
2022-08-17T11:22:09.658Z,45.90
2022-08-17T11:25:19.290Z,47.20
2022-08-17T11:28:25.913Z,45.10
2022-08-17T11:31:37.920Z,44.30
2022-08-17T11:34:43.600Z,45.40
2022-08-17T11:38:04.245Z,47.00
2022-08-17T11:41:27.663Z,49.10
2022-08-17T11:44:38.877Z,49.80
2022-08-17T11:48:27.091Z,52.60
2022-08-17T11:51:46.543Z,53.20
2022-08-17T11:54:48.968Z,55.90
2022-08-17T11:57:57.795Z,58.30
2022-08-17T12:01:01.728Z,59.90
2022-08-17T12:04:27.932Z,61.00
2022-08-17T12:07:32.595Z,62.20
2022-08-17T12:10:36.811Z,63.40
2022-08-17T12:13:45.059Z,64.80
2022-08-17T12:16:57.658Z,65.60
2022-08-17T12:20:15.221Z,66.10
2022-08-17T12:23:47.885Z,65.50
2022-08-17T12:26:56.773Z,66.50
2022-08-17T12:30:00.246Z,67.00
2022-08-17T12:33:02.713Z,67.60
2022-08-17T12:36:06.569Z,67.70
2022-08-17T12:39:14.369Z,66.90
2022-08-17T12:42:23.198Z,67.10
2022-08-17T12:45:27.589Z,67.70
2022-08-17T12:48:32.069Z,68.40
2022-08-17T12:51:34.200Z,67.00
2022-08-17T12:54:55.038Z,68.20
2022-08-17T12:58:01.777Z,69.30
2022-08-17T13:01:11.143Z,68.80
2022-08-17T13:04:14.384Z,69.90
2022-08-17T13:07:27.062Z,70.00
2022-08-17T13:10:33.385Z,69.50
2022-08-17T13:13:37.403Z,69.50
2022-08-17T13:16:40.269Z,70.00
2022-08-17T13:19:48.423Z,70.10
2022-08-17T13:22:55.811Z,70.70
2022-08-17T13:26:05.118Z,70.80
2022-08-17T13:29:16.270Z,71.60
2022-08-17T13:32:33.468Z,71.50
2022-08-17T13:35:41.142Z,71.10
2022-08-17T13:38:45.857Z,71.00
2022-08-17T13:41:48.773Z,70.80
2022-08-17T13:44:50.843Z,70.70
2022-08-17T13:48:05.049Z,70.90
2022-08-17T13:51:19.923Z,71.40
2022-08-17T13:54:28.002Z,72.20
2022-08-17T13:57:30.091Z,71.70
2022-08-17T14:00:35.556Z,71.50
2022-08-17T14:03:37.742Z,71.60
2022-08-17T14:06:51.918Z,70.80
2022-08-17T14:10:01.726Z,71.00
2022-08-17T14:13:04.130Z,70.70
2022-08-17T14:16:07.774Z,70.60
2022-08-17T14:19:12.872Z,70.10
2022-08-17T14:22:26.154Z,69.00
2022-08-17T14:25:29.532Z,68.80
2022-08-17T14:28:33.037Z,69.00
2022-08-17T14:31:39.149Z,68.80
2022-08-17T14:34:41.379Z,68.40
2022-08-17T14:37:45.838Z,68.40
2022-08-17T14:40:48.167Z,68.20
2022-08-17T14:43:50.879Z,67.60
2022-08-17T14:46:53.007Z,67.50
2022-08-17T14:49:54.962Z,67.10
2022-08-17T14:52:58.024Z,67.20
2022-08-17T14:56:01.838Z,66.90
2022-08-17T14:59:03.791Z,66.80
2022-08-17T15:02:06.302Z,66.90
2022-08-17T15:05:08.614Z,66.50
2022-08-17T15:08:10.707Z,66.00
2022-08-17T15:11:14.791Z,66.00
2022-08-17T15:14:16.875Z,66.20
2022-08-17T15:17:18.816Z,66.30
2022-08-17T15:20:23.359Z,66.00
2022-08-17T15:23:26.496Z,65.60
2022-08-17T15:26:28.553Z,65.80
2022-08-17T15:29:30.827Z,65.90
2022-08-17T15:32:38.250Z,66.30
2022-08-17T15:35:41.298Z,66.60
2022-08-17T15:38:44.549Z,66.70
2022-08-17T15:41:47.412Z,66.00
2022-08-17T15:45:04.740Z,65.70
2022-08-17T15:48:07.099Z,65.40
2022-08-17T15:51:09.180Z,65.40
2022-08-17T15:54:18.952Z,65.00
2022-08-17T15:57:25.872Z,65.20
2022-08-17T16:00:29.560Z,65.40
2022-08-17T16:04:01.254Z,65.40
2022-08-17T16:06:53.948Z,65.20
2022-08-17T16:09:56.058Z,65.70
2022-08-17T16:12:58.824Z,66.00
2022-08-17T16:16:01.438Z,66.80
2022-08-17T16:19:04.047Z,66.80
2022-08-17T16:22:07.129Z,66.90
2022-08-17T16:25:11.559Z,67.30
2022-08-17T16:28:14.710Z,67.10
2022-08-17T16:31:17.291Z,66.80
2022-08-17T16:34:19.878Z,66.50
2022-08-17T16:37:22.270Z,66.50
2022-08-17T16:40:26.282Z,66.00
2022-08-17T16:43:29.401Z,66.10
2022-08-17T16:46:31.732Z,66.60
2022-08-17T16:49:36.799Z,66.20
2022-08-17T16:52:40.120Z,66.00
2022-08-17T16:55:42.858Z,65.90
2022-08-17T16:58:45.655Z,66.20
2022-08-17T17:01:47.967Z,66.10
2022-08-17T17:04:52.746Z,66.00
2022-08-17T17:07:55.582Z,66.00
2022-08-17T17:10:59.912Z,66.20
2022-08-17T17:14:07.382Z,66.60
2022-08-17T17:17:28.108Z,67.10
2022-08-17T17:20:35.538Z,67.40
2022-08-17T17:23:48.632Z,67.70
2022-08-17T17:26:58.649Z,68.10
2022-08-17T17:30:06.799Z,69.10
2022-08-17T17:33:11.871Z,69.40
2022-08-17T17:36:13.728Z,69.50
2022-08-17T17:39:17.948Z,69.30
2022-08-17T17:42:22.228Z,69.40
2022-08-17T17:45:26.142Z,69.70
2022-08-17T17:48:28.667Z,70.00
2022-08-17T17:52:06.566Z,70.70
2022-08-17T17:55:25.082Z,71.50
2022-08-17T17:58:26.982Z,71.60
2022-08-17T18:01:47.919Z,71.40
2022-08-17T18:04:55.466Z,71.60
2022-08-17T18:08:11.422Z,71.60
2022-08-17T18:11:24.207Z,71.70
2022-08-17T18:14:45.319Z,72.60
2022-08-17T18:18:01.596Z,73.30
2022-08-17T18:21:06.978Z,73.70
2022-08-17T18:24:10.647Z,74.40
2022-08-17T18:27:31.539Z,75.00
2022-08-17T18:30:33.516Z,75.20
2022-08-17T18:33:36.462Z,75.60
2022-08-17T18:36:39.861Z,75.50
2022-08-17T18:39:43.053Z,76.10
2022-08-17T18:43:06.576Z,76.40
2022-08-17T18:46:41.221Z,77.10
2022-08-17T18:49:44.636Z,77.70
2022-08-17T18:52:49.462Z,77.90
2022-08-17T18:55:51.435Z,78.20
2022-08-17T18:59:04.134Z,79.20
2022-08-17T19:02:19.988Z,79.80
2022-08-17T19:05:41.146Z,80.30
2022-08-17T19:08:44.457Z,81.30
2022-08-17T19:11:46.537Z,81.80
2022-08-17T19:14:48.560Z,82.50
2022-08-17T19:18:04.886Z,83.10
2022-08-17T19:21:10.080Z,84.00
2022-08-17T19:24:19.816Z,84.70
2022-08-17T19:27:25.557Z,84.90
2022-08-17T19:30:37.212Z,85.40
2022-08-17T19:33:47.943Z,86.10
2022-08-17T19:36:57.061Z,86.90
2022-08-17T19:40:02.219Z,87.50
2022-08-17T19:43:05.544Z,88.30
2022-08-17T19:46:27.606Z,89.00
2022-08-17T19:49:46.769Z,89.30
2022-08-17T19:52:55.331Z,89.90
2022-08-17T19:56:06.204Z,89.80
2022-08-17T19:59:21.165Z,90.00
2022-08-17T20:02:41.930Z,90.10
2022-08-17T20:06:11.603Z,90.60
2022-08-17T20:09:18.444Z,90.50
2022-08-17T20:12:23.546Z,91.00
2022-08-17T20:15:29.620Z,91.30
2022-08-17T20:18:34.615Z,91.90
2022-08-17T20:21:37.571Z,92.20
2022-08-17T20:24:48.791Z,92.40
2022-08-17T20:28:06.302Z,92.50
2022-08-17T20:31:30.754Z,92.70
2022-08-17T20:34:38.008Z,92.80
2022-08-17T20:37:44.321Z,93.10
2022-08-17T20:40:57.484Z,93.10
2022-08-17T20:44:04.820Z,93.10
2022-08-17T20:47:33.189Z,93.40
2022-08-17T20:50:36.335Z,93.40
2022-08-17T20:53:47.248Z,93.40
2022-08-17T20:56:51.750Z,93.50
2022-08-17T20:59:55.277Z,93.50
2022-08-17T21:03:17.599Z,93.60
2022-08-17T21:06:21.144Z,93.80
2022-08-17T21:09:29.741Z,93.90
2022-08-17T21:12:58.069Z,93.80
2022-08-17T21:16:08.705Z,94.10
2022-08-17T21:19:31.247Z,94.40
2022-08-17T21:22:52.157Z,94.80
2022-08-17T21:26:06.198Z,94.80
2022-08-17T21:29:31.170Z,94.70
2022-08-17T21:32:35.805Z,95.10
2022-08-17T21:35:47.457Z,95.40
2022-08-17T21:38:55.680Z,95.40
2022-08-17T21:41:59.945Z,95.60
2022-08-17T21:45:09.820Z,95.90
2022-08-17T21:48:13.344Z,95.70
2022-08-17T21:51:20.832Z,95.90
2022-08-17T21:54:22.752Z,95.90
2022-08-17T21:57:28.618Z,95.90
2022-08-17T22:00:32.086Z,96.00
2022-08-17T22:03:34.285Z,96.00
2022-08-17T22:06:41.306Z,96.40
2022-08-17T22:09:44.898Z,96.40
2022-08-17T22:13:01.397Z,96.40
2022-08-17T22:16:27.887Z,96.60
2022-08-17T22:19:33.462Z,96.80
2022-08-17T22:22:57.211Z,96.70
2022-08-17T22:26:02.381Z,96.70
2022-08-17T22:29:04.441Z,96.80
2022-08-17T22:32:06.740Z,96.60
2022-08-17T22:35:30.379Z,96.70
2022-08-17T22:38:32.568Z,96.60
2022-08-17T22:41:41.396Z,96.50
2022-08-17T22:44:48.324Z,96.70
2022-08-17T22:47:53.747Z,96.50
2022-08-17T22:51:12.734Z,96.40
2022-08-17T22:54:36.399Z,96.90
2022-08-17T22:58:03.740Z,96.90
2022-08-17T23:01:23.724Z,96.70
2022-08-17T23:04:38.199Z,97.20
2022-08-17T23:07:42.491Z,97.50
2022-08-17T23:10:46.738Z,97.70
2022-08-17T23:13:48.800Z,97.80
2022-08-17T23:16:52.324Z,98.00
2022-08-17T23:19:55.880Z,98.00
2022-08-17T23:22:59.698Z,98.10
2022-08-17T23:26:01.955Z,98.40
2022-08-17T23:29:04.556Z,98.50
2022-08-17T23:32:06.634Z,98.60
2022-08-17T23:35:09.436Z,98.80
2022-08-17T23:38:12.493Z,98.80
2022-08-17T23:41:16.029Z,99.00
2022-08-17T23:44:18.371Z,99.00
2022-08-17T23:47:21.208Z,99.20
2022-08-17T23:50:23.614Z,99.30
2022-08-17T23:53:26.086Z,99.20
2022-08-17T23:56:28.357Z,99.40
2022-08-17T23:59:30.411Z,99.50
